Putney, United Kingdom
Current Conditions -  °F | °C
As of 3:20 PM on Monday 24 Nov 2014 (Local Time) from EGLL Reporting Station
Clear Clear  
Wind Chill: 46°   Ceiling: Unl
Heat Index: 46°   Visibility: 6mi
Dew Point: 39°   Wind: 0mph
Humidity: 76%   Direction: NA
Pressure: 30.33"   Gusts: NA
Location:  51.46°N, 0.22°W
Report Text: EGLL 241520Z 00000KT CAVOK 08/04 Q1027 NOSIG
Loading
Personal Weather Stations






























Interactive Weather Map New forecast layout! Learn more

10-Day Weather Forecast

Advertisements
Track Severe Weather on mobile